createdAt,value
2019-02-20T00:04:33.086Z,97831.81
2019-02-20T00:09:37.777Z,97835.89
2019-02-20T00:14:42.516Z,97834.63
2019-02-20T00:19:47.158Z,97824.47
2019-02-20T00:24:51.901Z,97820.07
2019-02-20T00:29:58.281Z,97814.83
2019-02-20T00:35:03.025Z,97817.34
2019-02-20T00:40:09.803Z,97811.14
2019-02-20T00:45:28.154Z,97799.83
2019-02-20T00:50:34.329Z,97797.32
2019-02-20T00:55:39.097Z,97789.39
2019-02-20T01:00:43.733Z,97785.55
2019-02-20T01:05:48.475Z,97784.93
2019-02-20T01:10:53.118Z,97784.67
2019-02-20T01:15:59.716Z,97788.00
2019-02-20T01:21:04.143Z,97778.88
2019-02-20T01:26:10.509Z,97774.31
2019-02-20T01:31:16.047Z,97776.59
2019-02-20T01:36:20.824Z,97768.89
2019-02-20T01:41:25.565Z,97764.83
2019-02-20T01:46:31.954Z,97764.70
2019-02-20T01:51:37.613Z,97758.48
2019-02-20T01:56:42.243Z,97760.28
2019-02-20T02:01:47.991Z,97762.84
2019-02-20T02:06:52.660Z,97766.16
2019-02-20T02:11:57.401Z,97766.26
2019-02-20T02:17:02.140Z,97758.54
2019-02-20T02:22:06.888Z,97757.20
2019-02-20T02:27:11.530Z,97753.88
2019-02-20T02:32:16.371Z,97755.03
2019-02-20T02:37:21.011Z,97752.89
2019-02-20T02:42:25.664Z,97752.22
2019-02-20T02:47:30.905Z,97747.48
2019-02-20T02:52:35.650Z,97748.77
2019-02-20T02:57:41.393Z,97746.34
2019-02-20T03:02:46.918Z,97743.81
2019-02-20T03:07:51.513Z,97745.28
2019-02-20T03:12:56.154Z,97740.83
2019-02-20T03:18:00.793Z,97745.00
2019-02-20T03:23:05.429Z,97752.72
2019-02-20T03:28:10.075Z,97756.98
2019-02-20T03:33:14.818Z,97761.88
2019-02-20T03:38:29.647Z,97753.75
2019-02-20T03:43:25.837Z,97755.28
2019-02-20T03:48:30.480Z,97755.05
2019-02-20T03:53:35.327Z,97762.27
2019-02-20T03:58:40.068Z,97754.65
2019-02-20T04:03:44.808Z,97751.52
2019-02-20T04:08:49.465Z,97745.65
2019-02-20T04:13:54.197Z,97744.91
2019-02-20T04:18:58.934Z,97735.96
2019-02-20T04:24:05.385Z,97737.55
2019-02-20T04:29:10.161Z,97741.03
2019-02-20T04:34:15.007Z,97741.48
2019-02-20T04:39:19.650Z,97757.64
2019-02-20T04:44:24.697Z,97757.69
2019-02-20T04:49:29.337Z,97759.42
2019-02-20T04:54:34.083Z,97766.86
2019-02-20T04:59:38.821Z,97771.22
2019-02-20T05:04:43.560Z,97770.70
2019-02-20T05:09:48.309Z,97772.38
2019-02-20T05:14:52.899Z,97770.23
2019-02-20T05:19:57.434Z,97778.13
2019-02-20T05:25:02.298Z,97783.83
2019-02-20T05:30:08.931Z,97789.65
2019-02-20T05:35:13.657Z,97782.09
2019-02-20T05:40:18.399Z,97799.11
2019-02-20T05:45:23.142Z,97805.72
2019-02-20T05:50:27.990Z,97816.11
2019-02-20T05:55:32.653Z,97826.23
2019-02-20T06:00:37.378Z,97830.36
2019-02-20T06:05:42.008Z,97834.16
2019-02-20T06:10:46.938Z,97831.84
2019-02-20T06:15:51.864Z,97838.17
2019-02-20T06:20:57.449Z,97846.16
2019-02-20T06:26:02.237Z,97855.72
2019-02-20T06:31:07.027Z,97858.30
2019-02-20T06:36:12.925Z,97856.48
2019-02-20T06:41:17.663Z,97858.23
2019-02-20T06:46:22.407Z,97863.19
2019-02-20T06:51:27.050Z,97859.02
2019-02-20T06:56:31.805Z,97859.03
2019-02-20T07:01:37.557Z,97857.81
2019-02-20T07:06:51.003Z,97856.58
2019-02-20T07:12:30.672Z,97857.83
2019-02-20T07:17:53.641Z,97853.69
2019-02-20T07:23:10.781Z,97854.91
2019-02-20T07:28:30.973Z,97848.64
2019-02-20T07:33:35.747Z,97849.42
2019-02-20T07:38:42.120Z,97853.91
2019-02-20T07:43:46.680Z,97859.72
2019-02-20T07:48:51.479Z,97856.81
2019-02-20T07:53:56.125Z,97855.88
2019-02-20T07:59:02.227Z,97859.72
2019-02-20T08:04:07.875Z,97861.33
2019-02-20T08:09:12.814Z,97853.13
2019-02-20T08:14:17.550Z,97848.18
2019-02-20T08:19:22.194Z,97851.30
2019-02-20T08:24:27.959Z,97843.83
2019-02-20T08:29:32.546Z,97844.66
2019-02-20T08:34:37.238Z,97843.53
2019-02-20T08:39:41.812Z,97841.41
2019-02-20T08:44:46.531Z,97839.92
2019-02-20T08:49:51.168Z,97840.56
2019-02-20T08:54:56.008Z,97843.26
2019-02-20T09:00:00.650Z,97833.67
2019-02-20T09:05:09.057Z,97833.96
2019-02-20T09:10:14.129Z,97835.31
2019-02-20T09:15:18.872Z,97826.66
2019-02-20T09:20:23.715Z,97817.11
2019-02-20T09:25:30.101Z,97817.07
2019-02-20T09:30:34.846Z,97814.93
2019-02-20T09:35:39.512Z,97819.54
2019-02-20T09:40:45.251Z,97812.09
2019-02-20T09:45:50.816Z,97805.47
2019-02-20T09:50:55.378Z,97797.00
2019-02-20T09:56:00.196Z,97793.62
2019-02-20T10:01:04.841Z,97786.45
2019-02-20T10:06:09.481Z,97781.25
2019-02-20T10:11:14.221Z,97767.19
2019-02-20T10:16:18.970Z,97764.20
2019-02-20T10:21:23.713Z,97756.00
2019-02-20T10:26:28.454Z,97755.58
2019-02-20T10:31:33.225Z,97752.03
2019-02-20T10:36:37.942Z,97743.94
2019-02-20T10:41:42.576Z,97736.16
2019-02-20T10:46:47.320Z,97735.92
2019-02-20T10:51:52.072Z,97724.64
2019-02-20T10:56:56.816Z,97724.27
2019-02-20T11:02:01.554Z,97711.14
2019-02-20T11:07:07.319Z,97706.94
2019-02-20T11:12:12.064Z,97700.86
2019-02-20T11:17:17.012Z,97703.89
2019-02-20T11:22:21.756Z,97701.25
2019-02-20T11:27:26.532Z,97701.28
2019-02-20T11:32:31.246Z,97695.32
2019-02-20T11:37:35.892Z,97697.78
2019-02-20T11:42:40.630Z,97689.20
2019-02-20T11:47:45.375Z,97686.23
2019-02-20T11:52:50.119Z,97683.46
2019-02-20T11:58:00.803Z,97688.47
2019-02-20T12:03:02.779Z,97686.25
2019-02-20T12:08:07.827Z,97686.98
2019-02-20T12:13:12.573Z,97686.20
2019-02-20T12:18:17.721Z,97685.51
2019-02-20T12:23:24.215Z,97690.36
2019-02-20T12:28:28.951Z,97691.88
2019-02-20T12:33:35.434Z,97691.38
2019-02-20T12:38:40.179Z,97698.45
2019-02-20T12:43:44.926Z,97695.11
2019-02-20T12:48:49.701Z,97693.64
2019-02-20T12:53:55.159Z,97695.91
2019-02-20T12:59:07.562Z,97704.16
2019-02-20T13:04:07.483Z,97705.27
2019-02-20T13:09:13.867Z,97702.95
2019-02-20T13:14:19.019Z,97706.13
2019-02-20T13:19:23.763Z,97719.64
2019-02-20T13:24:29.309Z,97722.55
2019-02-20T13:29:34.071Z,97724.80
2019-02-20T13:34:41.981Z,97728.55
2019-02-20T13:39:46.729Z,97741.16
2019-02-20T13:44:53.851Z,97741.44
2019-02-20T13:49:58.671Z,97741.14
2019-02-20T13:55:03.313Z,97747.03
2019-02-20T14:00:13.336Z,97752.27
2019-02-20T14:05:20.075Z,97763.53
2019-02-20T14:10:24.918Z,97767.06
2019-02-20T14:15:29.987Z,97761.47
2019-02-20T14:20:34.739Z,97764.55
2019-02-20T14:25:39.453Z,97758.93
2019-02-20T14:30:45.845Z,97763.17
2019-02-20T14:35:50.581Z,97766.80
2019-02-20T14:40:57.065Z,97771.73
2019-02-20T14:46:02.131Z,97769.81
2019-02-20T14:51:06.856Z,97768.30
2019-02-20T14:56:11.701Z,97769.28
2019-02-20T15:01:16.451Z,97770.59
2019-02-20T15:06:21.091Z,97775.04
2019-02-20T15:11:26.404Z,97776.48
2019-02-20T15:16:32.213Z,97777.94
2019-02-20T15:21:37.159Z,97779.84
2019-02-20T15:26:41.907Z,97777.30
2019-02-20T15:31:46.750Z,97780.95
2019-02-20T15:36:51.627Z,97781.22
2019-02-20T15:41:56.669Z,97787.56
2019-02-20T15:47:01.928Z,97795.44
2019-02-20T15:52:06.747Z,97796.98
2019-02-20T15:57:11.819Z,97807.97
2019-02-20T16:02:16.650Z,97808.35
2019-02-20T16:07:21.835Z,97823.83
2019-02-20T16:12:27.204Z,97828.81
2019-02-20T16:17:33.050Z,97831.01
2019-02-20T16:22:39.167Z,97843.93
2019-02-20T16:27:47.078Z,97850.34
2019-02-20T16:32:51.322Z,97861.39
2019-02-20T16:37:56.216Z,97868.14
2019-02-20T16:43:00.956Z,97872.22
2019-02-20T16:48:05.689Z,97877.57
2019-02-20T16:53:10.530Z,97891.06
2019-02-20T16:58:15.174Z,97907.17
2019-02-20T17:03:19.911Z,97912.94
2019-02-20T17:08:24.706Z,97928.16
2019-02-20T17:13:29.717Z,97936.28
2019-02-20T17:18:34.651Z,97937.49
2019-02-20T17:23:39.401Z,97946.64
2019-02-20T17:28:44.142Z,97953.67
2019-02-20T17:33:49.811Z,97948.63
2019-02-20T17:38:54.653Z,97964.80
2019-02-20T17:43:59.291Z,97960.22
2019-02-20T17:49:04.073Z,97969.47
2019-02-20T17:54:08.777Z,97976.88
2019-02-20T17:59:13.521Z,97982.09
2019-02-20T18:04:18.267Z,97980.60
2019-02-20T18:09:23.006Z,97988.85
2019-02-20T18:14:27.757Z,97987.02
2019-02-20T18:19:32.496Z,97993.11
2019-02-20T18:24:37.344Z,97992.56
2019-02-20T18:29:42.388Z,97993.83
2019-02-20T18:34:47.343Z,97996.38
2019-02-20T18:39:53.142Z,98009.16
2019-02-20T18:44:57.966Z,98013.12
2019-02-20T18:50:02.705Z,98020.52
2019-02-20T18:55:09.830Z,98023.73
2019-02-20T19:00:20.349Z,98029.00
2019-02-20T19:05:26.961Z,98030.41
2019-02-20T19:10:37.964Z,98035.61
2019-02-20T19:16:08.605Z,98041.95
2019-02-20T19:21:31.986Z,98050.58
2019-02-20T19:26:43.113Z,98051.97
2019-02-20T19:31:54.584Z,98061.20
2019-02-20T19:37:18.973Z,98058.59
2019-02-20T19:42:46.465Z,98066.17
2019-02-20T19:48:24.676Z,98068.32
2019-02-20T19:53:35.483Z,98078.81
2019-02-20T19:59:09.305Z,98086.38
2019-02-20T20:04:24.233Z,98092.95
2019-02-20T20:09:38.898Z,98087.89
2019-02-20T20:14:58.772Z,98094.91
2019-02-20T20:20:21.629Z,98101.61
2019-02-20T20:25:35.281Z,98091.58
2019-02-20T20:30:45.661Z,98096.73
2019-02-20T20:35:59.218Z,98098.77
2019-02-20T20:41:09.137Z,98098.97
2019-02-20T20:46:36.126Z,98097.47
2019-02-20T20:52:00.724Z,98099.50
2019-02-20T20:57:21.025Z,98103.06
2019-02-20T21:02:34.472Z,98096.16
2019-02-20T21:07:57.549Z,98097.30
2019-02-20T21:13:34.992Z,98101.30
2019-02-20T21:19:04.281Z,98104.50
2019-02-20T21:24:27.185Z,98106.38
2019-02-20T21:29:38.094Z,98116.77
2019-02-20T21:35:11.448Z,98120.98
2019-02-20T21:40:19.361Z,98115.61
2019-02-20T21:45:48.443Z,98118.05
2019-02-20T21:51:05.201Z,98127.28
2019-02-20T21:56:24.809Z,98120.95
2019-02-20T22:01:38.616Z,98132.56
2019-02-20T22:07:07.884Z,98138.11
2019-02-20T22:12:32.270Z,98137.45
2019-02-20T22:17:45.836Z,98130.87
2019-02-20T22:22:55.250Z,98132.62
2019-02-20T22:28:14.894Z,98135.42
2019-02-20T22:33:31.496Z,98138.06
2019-02-20T22:38:56.191Z,98141.14
2019-02-20T22:44:24.555Z,98136.89
2019-02-20T22:49:52.067Z,98140.45
2019-02-20T22:55:16.267Z,98149.08
2019-02-20T23:00:41.854Z,98144.69
2019-02-20T23:06:02.932Z,98142.01
2019-02-20T23:11:30.505Z,98139.26
2019-02-20T23:16:35.151Z,98138.98
2019-02-20T23:21:41.549Z,98148.42
2019-02-20T23:26:47.279Z,98145.06
2019-02-20T23:31:51.927Z,98153.54
2019-02-20T23:36:56.558Z,98153.27
2019-02-20T23:42:01.315Z,98153.31
2019-02-20T23:47:06.051Z,98166.30
2019-02-20T23:52:10.802Z,98162.61
2019-02-20T23:57:15.377Z,98170.68
